createdAt,value
2018-08-10T00:01:44.653Z,25.2
2018-08-10T00:06:41.813Z,25.2
2018-08-10T00:11:38.899Z,25.1
2018-08-10T00:16:35.982Z,24.6
2018-08-10T00:21:33.429Z,25
2018-08-10T00:26:30.680Z,24.1
2018-08-10T00:31:27.580Z,25
2018-08-10T00:36:24.756Z,24.9
2018-08-10T00:41:21.882Z,24.9
2018-08-10T00:46:18.873Z,24.8
2018-08-10T00:51:15.828Z,24.8
2018-08-10T00:56:12.785Z,24.7
2018-08-10T01:01:10.025Z,24.7
2018-08-10T01:06:07.213Z,23.8
2018-08-10T01:11:04.221Z,24.6
2018-08-10T01:16:01.390Z,24.6
2018-08-10T01:20:58.592Z,24.5
2018-08-10T01:25:55.802Z,24.5
2018-08-10T01:30:52.849Z,24.5
2018-08-10T01:35:50.149Z,24.3
2018-08-10T01:40:47.179Z,24.4
2018-08-10T01:45:44.213Z,24.4
2018-08-10T01:50:41.208Z,24.3
2018-08-10T01:55:38.058Z,24.3
2018-08-10T02:00:35.048Z,23.8
2018-08-10T02:05:32.162Z,24.2
2018-08-10T02:10:29.150Z,23.6
2018-08-10T02:15:26.252Z,24.1
2018-08-10T02:20:23.541Z,24.1
2018-08-10T02:25:20.904Z,24.1
2018-08-10T02:30:17.799Z,24
2018-08-10T02:35:14.848Z,24
2018-08-10T02:40:11.886Z,24
2018-08-10T02:45:09.043Z,23.9
2018-08-10T02:50:05.489Z,23.9
2018-08-10T02:55:02.560Z,23.8
2018-08-10T02:59:59.624Z,23.8
2018-08-10T03:04:56.895Z,23
2018-08-10T03:09:53.906Z,23.7
2018-08-10T03:14:51.057Z,23.3
2018-08-10T03:19:48.089Z,23.7
2018-08-10T03:24:45.247Z,23.6
2018-08-10T03:29:42.604Z,22.7
2018-08-10T03:34:39.605Z,23.5
2018-08-10T03:39:36.637Z,23.5
2018-08-10T03:44:33.960Z,23.5
2018-08-10T03:49:30.342Z,23.5
2018-08-10T03:54:27.621Z,23.5
2018-08-10T03:59:24.795Z,23.4
2018-08-10T04:04:21.973Z,23.4
2018-08-10T04:09:19.086Z,23.4
2018-08-10T04:14:16.118Z,23.4
2018-08-10T04:19:13.268Z,23.4
2018-08-10T04:24:10.485Z,23.4
2018-08-10T04:29:07.569Z,23.4
2018-08-10T04:34:04.805Z,23.4
2018-08-10T04:39:02.107Z,23.4
2018-08-10T04:43:59.227Z,23.4
2018-08-10T04:48:56.315Z,23.4
2018-08-10T04:53:53.615Z,23.4
2018-08-10T04:58:51.013Z,23.4
2018-08-10T05:03:48.502Z,23.3
2018-08-10T05:08:45.867Z,23.3
2018-08-10T05:13:42.938Z,23.3
2018-08-10T05:18:40.050Z,23.3
2018-08-10T05:23:37.170Z,23.1
2018-08-10T05:28:34.236Z,23.3
2018-08-10T05:33:31.541Z,23.3
2018-08-10T05:38:28.860Z,23.2
2018-08-10T05:43:26.276Z,23.2
2018-08-10T05:48:23.482Z,22.8
2018-08-10T05:53:20.883Z,23.2
2018-08-10T05:58:18.127Z,22.7
2018-08-10T06:03:15.232Z,23.2
2018-08-10T06:08:12.599Z,23.3
2018-08-10T06:13:09.855Z,23.3
2018-08-10T06:18:07.088Z,23.3
2018-08-10T06:23:04.424Z,23.3
2018-08-10T06:28:02.135Z,23.3
2018-08-10T06:32:59.577Z,23.3
2018-08-10T06:37:56.418Z,23.3
2018-08-10T06:42:54.876Z,23.4
2018-08-10T06:47:52.108Z,23.4
2018-08-10T06:52:49.424Z,23.3
2018-08-10T06:57:46.852Z,23.1
2018-08-10T07:02:44.680Z,23.5
2018-08-10T07:07:42.963Z,22.9
2018-08-10T07:12:40.658Z,23.6
2018-08-10T07:17:37.571Z,23.6
2018-08-10T07:22:34.834Z,23.5
2018-08-10T07:27:32.187Z,23
2018-08-10T07:32:28.624Z,23.7
2018-08-10T07:37:26.113Z,23.7
2018-08-10T07:42:23.235Z,23.8
2018-08-10T07:47:20.861Z,23.8
2018-08-10T07:52:18.320Z,23.9
2018-08-10T07:57:15.980Z,23.1
2018-08-10T08:02:13.184Z,24
2018-08-10T08:07:10.349Z,24
2018-08-10T08:12:07.556Z,24
2018-08-10T08:17:04.854Z,24.1
2018-08-10T08:22:03.534Z,24.1
2018-08-10T08:27:00.765Z,24.2
2018-08-10T08:31:57.738Z,24.2
2018-08-10T08:36:55.020Z,24.3
2018-08-10T08:41:52.104Z,24.3
2018-08-10T08:46:49.331Z,24.4
2018-08-10T08:51:46.522Z,24.4
2018-08-10T08:56:43.786Z,24.5
2018-08-10T09:01:41.103Z,23.6
2018-08-10T09:06:38.463Z,24.6
2018-08-10T09:11:36.372Z,24.6
2018-08-10T09:16:43.648Z,24.7
2018-08-10T09:21:44.275Z,24.8
2018-08-10T09:26:41.789Z,24.8
2018-08-10T09:31:39.022Z,24.9
2018-08-10T09:36:36.051Z,24.9
2018-08-10T09:41:33.447Z,24.9
2018-08-10T09:46:30.162Z,24.1
2018-08-10T09:51:26.809Z,25
2018-08-10T09:56:23.936Z,25.1
2018-08-10T10:01:21.263Z,25.1
2018-08-10T10:06:18.461Z,25.2
2018-08-10T10:11:15.739Z,25.2
2018-08-10T10:16:12.939Z,25.3
2018-08-10T10:21:10.176Z,25.3
2018-08-10T10:26:07.674Z,25.4
2018-08-10T10:31:05.538Z,25.4
2018-08-10T10:36:02.800Z,25.5
2018-08-10T10:40:59.781Z,25.5
2018-08-10T10:45:56.963Z,25.6
2018-08-10T10:50:54.262Z,25.6
2018-08-10T10:55:51.694Z,25.7
2018-08-10T11:00:49.007Z,25.7
2018-08-10T11:05:46.081Z,25.7
2018-08-10T11:10:43.257Z,25.8
2018-08-10T11:15:40.472Z,25.8
2018-08-10T11:20:37.742Z,25.9
2018-08-10T11:25:34.993Z,25
2018-08-10T11:30:32.337Z,25.9
2018-08-10T11:35:29.717Z,26
2018-08-10T11:40:26.940Z,26
2018-08-10T11:45:24.297Z,26
2018-08-10T11:50:21.705Z,26.1
2018-08-10T11:55:18.994Z,26.1
2018-08-10T12:00:16.512Z,26.2
2018-08-10T12:05:13.699Z,26.2
2018-08-10T12:10:11.076Z,26.3
2018-08-10T12:15:08.465Z,25.7
2018-08-10T12:20:05.453Z,26.4
2018-08-10T12:25:02.813Z,26.4
2018-08-10T12:30:00.052Z,26.4
2018-08-10T12:34:57.362Z,26.5
2018-08-10T12:39:54.543Z,26.5
2018-08-10T12:44:51.933Z,26.6
2018-08-10T12:49:49.173Z,26.6
2018-08-10T12:54:46.523Z,26.7
2018-08-10T12:59:43.804Z,26.8
2018-08-10T13:04:41.504Z,26.8
2018-08-10T13:09:38.926Z,26.9
2018-08-10T13:14:36.106Z,27
2018-08-10T13:19:33.340Z,27
2018-08-10T13:24:30.881Z,27.1
2018-08-10T13:29:28.081Z,27.1
2018-08-10T13:34:25.198Z,27.2
2018-08-10T13:39:22.537Z,27.3
2018-08-10T13:44:19.975Z,27.4
2018-08-10T13:49:17.439Z,27
2018-08-10T13:54:14.694Z,27.5
2018-08-10T13:59:11.925Z,27.6
2018-08-10T14:04:09.124Z,27.6
2018-08-10T14:09:06.540Z,26.9
2018-08-10T14:14:03.795Z,27.8
2018-08-10T14:19:01.170Z,27.8
2018-08-10T14:23:58.477Z,27.9
2018-08-10T14:28:55.858Z,27.9
2018-08-10T14:33:52.990Z,28
2018-08-10T14:38:50.344Z,28
2018-08-10T14:43:47.802Z,27.3
2018-08-10T14:48:45.094Z,28.1
2018-08-10T14:53:42.439Z,28.2
2018-08-10T14:58:39.936Z,28.2
2018-08-10T15:03:37.394Z,28.2
2018-08-10T15:08:34.843Z,27.6
2018-08-10T15:13:32.182Z,28.3
2018-08-10T15:18:29.609Z,28.3
2018-08-10T15:23:27.101Z,28.3
2018-08-10T15:28:24.372Z,28.3
2018-08-10T15:33:22.034Z,27.8
2018-08-10T15:38:19.570Z,28.4
2018-08-10T15:43:17.095Z,28.4
2018-08-10T15:48:14.424Z,28.4
2018-08-10T15:53:11.592Z,28.4
2018-08-10T15:58:08.414Z,28.4
2018-08-10T16:03:05.582Z,28.3
2018-08-10T16:08:02.885Z,28.3
2018-08-10T16:13:00.097Z,28.3
2018-08-10T16:17:57.332Z,28.3
2018-08-10T16:22:54.338Z,28.3
2018-08-10T16:27:51.634Z,28.3
2018-08-10T16:32:48.376Z,28.2
2018-08-10T16:37:45.566Z,28.2
2018-08-10T16:42:42.921Z,28.2
2018-08-10T16:47:40.134Z,28.1
2018-08-10T16:52:37.145Z,28.1
2018-08-10T16:57:34.599Z,28.1
2018-08-10T17:02:31.753Z,28.1
2018-08-10T17:07:28.958Z,28
2018-08-10T17:12:26.073Z,28
2018-08-10T17:17:23.281Z,28
2018-08-10T17:22:20.658Z,27.1
2018-08-10T17:27:17.998Z,28
2018-08-10T17:32:15.383Z,27.9
2018-08-10T17:37:12.812Z,27.9
2018-08-10T17:42:10.288Z,27.9
2018-08-10T17:47:07.443Z,27.8
2018-08-10T17:52:04.495Z,27.8
2018-08-10T17:57:01.655Z,27.8
2018-08-10T18:01:58.922Z,27.7
2018-08-10T18:06:56.184Z,27.7
2018-08-10T18:11:53.269Z,27.7
2018-08-10T18:16:50.689Z,26.9
2018-08-10T18:21:47.938Z,27.6
2018-08-10T18:26:45.143Z,27.6
2018-08-10T18:31:42.332Z,27.5
2018-08-10T18:36:39.241Z,27.5
2018-08-10T18:41:36.435Z,27.4
2018-08-10T18:46:33.666Z,27.4
2018-08-10T18:51:31.153Z,27.4
2018-08-10T18:56:28.400Z,27.3
2018-08-10T19:01:25.351Z,27.3
2018-08-10T19:06:23.519Z,27
2018-08-10T19:11:21.288Z,26.6
2018-08-10T19:16:18.525Z,27.1
2018-08-10T19:21:15.950Z,26.6
2018-08-10T19:26:13.146Z,27
2018-08-10T19:31:10.587Z,27
2018-08-10T19:36:07.683Z,26.9
2018-08-10T19:41:04.977Z,26.5
2018-08-10T19:46:02.035Z,26.8
2018-08-10T19:50:59.221Z,26.8
2018-08-10T19:55:56.499Z,26.7
2018-08-10T20:00:54.249Z,26.7
2018-08-10T20:05:51.891Z,26.7
2018-08-10T20:10:49.286Z,26.6
2018-08-10T20:15:46.403Z,26.5
2018-08-10T20:20:43.684Z,26.5
2018-08-10T20:25:40.968Z,26.5
2018-08-10T20:30:38.224Z,26.4
2018-08-10T20:35:35.171Z,26.4
2018-08-10T20:40:32.223Z,26.3
2018-08-10T20:45:29.570Z,26.2
2018-08-10T20:50:26.977Z,26.2
2018-08-10T20:55:23.657Z,26.2
2018-08-10T21:00:20.891Z,26.1
2018-08-10T21:05:18.078Z,26.1
2018-08-10T21:10:14.995Z,25.4
2018-08-10T21:15:11.861Z,26
2018-08-10T21:20:09.156Z,25.9
2018-08-10T21:25:06.413Z,25.9
2018-08-10T21:30:03.782Z,25.8
2018-08-10T21:35:00.839Z,25.8
2018-08-10T21:39:58.116Z,25.7
2018-08-10T21:44:55.383Z,25.7
2018-08-10T21:49:52.641Z,25.6
2018-08-10T21:54:49.334Z,25.6
2018-08-10T21:59:46.390Z,25.5
2018-08-10T22:04:43.503Z,25.5
2018-08-10T22:09:40.686Z,25.5
2018-08-10T22:14:37.836Z,25.4
2018-08-10T22:19:35.004Z,24.7
2018-08-10T22:24:32.242Z,25.3
2018-08-10T22:29:29.552Z,25.3
2018-08-10T22:34:26.500Z,25.2
2018-08-10T22:39:23.613Z,25
2018-08-10T22:44:20.874Z,24.5
2018-08-10T22:49:18.222Z,25.1
2018-08-10T22:54:15.263Z,25
2018-08-10T22:59:12.466Z,25
2018-08-10T23:04:09.756Z,24.9
2018-08-10T23:09:06.880Z,24.9
2018-08-10T23:14:04.050Z,24.9
2018-08-10T23:19:01.304Z,24.8
2018-08-10T23:23:58.424Z,24.7
2018-08-10T23:28:55.559Z,24.7
2018-08-10T23:33:52.838Z,24.7
2018-08-10T23:38:50.217Z,24.6
2018-08-10T23:43:47.429Z,24
2018-08-10T23:48:44.370Z,24.5
2018-08-10T23:53:41.759Z,24.5
2018-08-10T23:58:39.059Z,24.4
